sensor_id;sensor_type;location;lat;lon;timestamp;P1;durP1;ratioP1;P2;durP2;ratioP2
3625;SDS011;1827;50.534;8.316;2023-02-26T00:01:23;16.10;;;4.80;;
3625;SDS011;1827;50.534;8.316;2023-02-26T00:03:51;19.60;;;4.13;;
3625;SDS011;1827;50.534;8.316;2023-02-26T00:06:19;19.17;;;5.00;;
3625;SDS011;1827;50.534;8.316;2023-02-26T00:08:45;15.30;;;3.90;;
3625;SDS011;1827;50.534;8.316;2023-02-26T00:11:12;21.93;;;4.20;;
3625;SDS011;1827;50.534;8.316;2023-02-26T00:13:38;15.97;;;4.67;;
3625;SDS011;1827;50.534;8.316;2023-02-26T00:16:28;17.10;;;4.57;;
3625;SDS011;1827;50.534;8.316;2023-02-26T00:18:54;20.23;;;4.80;;
3625;SDS011;1827;50.534;8.316;2023-02-26T00:21:23;25.90;;;5.67;;
3625;SDS011;1827;50.534;8.316;2023-02-26T00:23:53;18.90;;;5.60;;
3625;SDS011;1827;50.534;8.316;2023-02-26T00:26:21;26.23;;;7.73;;
3625;SDS011;1827;50.534;8.316;2023-02-26T00:28:50;18.13;;;5.40;;
3625;SDS011;1827;50.534;8.316;2023-02-26T00:31:18;22.47;;;5.53;;
3625;SDS011;1827;50.534;8.316;2023-02-26T00:33:50;20.27;;;6.10;;
3625;SDS011;1827;50.534;8.316;2023-02-26T00:39:28;34.67;;;10.00;;
3625;SDS011;1827;50.534;8.316;2023-02-26T00:42:03;41.60;;;13.63;;
3625;SDS011;1827;50.534;8.316;2023-02-26T00:44:32;40.10;;;14.00;;
3625;SDS011;1827;50.534;8.316;2023-02-26T00:52:36;42.27;;;13.70;;
3625;SDS011;1827;50.534;8.316;2023-02-26T00:55:07;20.40;;;5.20;;
3625;SDS011;1827;50.534;8.316;2023-02-26T00:57:38;19.77;;;4.50;;
3625;SDS011;1827;50.534;8.316;2023-02-26T01:00:04;20.13;;;4.20;;
3625;SDS011;1827;50.534;8.316;2023-02-26T01:02:33;15.63;;;3.97;;
3625;SDS011;1827;50.534;8.316;2023-02-26T01:05:00;18.30;;;3.90;;
3625;SDS011;1827;50.534;8.316;2023-02-26T01:07:28;16.10;;;4.00;;
3625;SDS011;1827;50.534;8.316;2023-02-26T01:10:01;14.53;;;4.07;;
3625;SDS011;1827;50.534;8.316;2023-02-26T01:12:29;17.07;;;4.90;;
3625;SDS011;1827;50.534;8.316;2023-02-26T01:14:56;16.50;;;4.80;;
3625;SDS011;1827;50.534;8.316;2023-02-26T01:17:36;15.20;;;4.80;;
3625;SDS011;1827;50.534;8.316;2023-02-26T01:20:15;17.43;;;4.70;;
3625;SDS011;1827;50.534;8.316;2023-02-26T01:23:00;19.67;;;5.13;;
3625;SDS011;1827;50.534;8.316;2023-02-26T01:25:36;20.67;;;4.77;;
3625;SDS011;1827;50.534;8.316;2023-02-26T01:28:08;17.83;;;4.50;;
3625;SDS011;1827;50.534;8.316;2023-02-26T01:30:35;14.43;;;4.30;;
3625;SDS011;1827;50.534;8.316;2023-02-26T01:36:13;20.93;;;5.63;;
3625;SDS011;1827;50.534;8.316;2023-02-26T01:49:22;16.80;;;4.40;;
3625;SDS011;1827;50.534;8.316;2023-02-26T01:54:31;20.00;;;4.47;;
3625;SDS011;1827;50.534;8.316;2023-02-26T01:57:08;24.13;;;5.37;;
3625;SDS011;1827;50.534;8.316;2023-02-26T01:59:44;19.93;;;5.57;;
3625;SDS011;1827;50.534;8.316;2023-02-26T02:02:21;17.23;;;5.60;;
3625;SDS011;1827;50.534;8.316;2023-02-26T02:04:51;22.80;;;5.37;;
3625;SDS011;1827;50.534;8.316;2023-02-26T02:07:18;22.80;;;5.70;;
3625;SDS011;1827;50.534;8.316;2023-02-26T02:09:45;19.47;;;5.10;;
3625;SDS011;1827;50.534;8.316;2023-02-26T02:31:26;12.67;;;3.57;;
3625;SDS011;1827;50.534;8.316;2023-02-26T02:36:34;14.70;;;3.93;;
3625;SDS011;1827;50.534;8.316;2023-02-26T02:39:22;15.80;;;4.10;;
3625;SDS011;1827;50.534;8.316;2023-02-26T02:42:08;14.63;;;3.77;;
3625;SDS011;1827;50.534;8.316;2023-02-26T02:44:49;14.10;;;4.20;;
3625;SDS011;1827;50.534;8.316;2023-02-26T02:47:20;17.70;;;4.17;;
3625;SDS011;1827;50.534;8.316;2023-02-26T02:49:52;17.40;;;4.33;;
3625;SDS011;1827;50.534;8.316;2023-02-26T02:52:48;15.33;;;3.97;;
3625;SDS011;1827;50.534;8.316;2023-02-26T02:55:20;14.33;;;4.17;;
3625;SDS011;1827;50.534;8.316;2023-02-26T02:57:51;20.13;;;4.93;;
3625;SDS011;1827;50.534;8.316;2023-02-26T03:00:29;20.20;;;4.53;;
3625;SDS011;1827;50.534;8.316;2023-02-26T03:03:00;16.43;;;4.60;;
3625;SDS011;1827;50.534;8.316;2023-02-26T03:05:36;15.03;;;4.67;;
3625;SDS011;1827;50.534;8.316;2023-02-26T03:08:07;13.50;;;3.97;;
3625;SDS011;1827;50.534;8.316;2023-02-26T03:10:39;15.77;;;4.57;;
3625;SDS011;1827;50.534;8.316;2023-02-26T03:13:15;17.30;;;4.20;;
3625;SDS011;1827;50.534;8.316;2023-02-26T03:19:16;13.50;;;3.97;;
3625;SDS011;1827;50.534;8.316;2023-02-26T03:24:47;16.27;;;4.50;;
3625;SDS011;1827;50.534;8.316;2023-02-26T03:29:52;14.23;;;3.20;;
3625;SDS011;1827;50.534;8.316;2023-02-26T03:37:55;13.70;;;3.87;;
3625;SDS011;1827;50.534;8.316;2023-02-26T03:40:40;15.53;;;4.00;;
3625;SDS011;1827;50.534;8.316;2023-02-26T03:43:17;15.43;;;4.03;;
3625;SDS011;1827;50.534;8.316;2023-02-26T03:45:47;15.20;;;3.87;;
3625;SDS011;1827;50.534;8.316;2023-02-26T03:48:17;16.50;;;4.27;;
3625;SDS011;1827;50.534;8.316;2023-02-26T03:50:51;17.03;;;3.73;;
3625;SDS011;1827;50.534;8.316;2023-02-26T03:53:55;19.77;;;3.70;;
3625;SDS011;1827;50.534;8.316;2023-02-26T03:56:52;15.03;;;3.87;;
3625;SDS011;1827;50.534;8.316;2023-02-26T03:59:39;17.63;;;3.83;;
3625;SDS011;1827;50.534;8.316;2023-02-26T04:02:43;14.47;;;4.47;;
3625;SDS011;1827;50.534;8.316;2023-02-26T04:05:18;13.27;;;3.90;;
3625;SDS011;1827;50.534;8.316;2023-02-26T04:07:47;40.77;;;15.30;;
3625;SDS011;1827;50.534;8.316;2023-02-26T04:10:18;22.70;;;4.60;;
3625;SDS011;1827;50.534;8.316;2023-02-26T04:13:01;15.70;;;3.53;;
3625;SDS011;1827;50.534;8.316;2023-02-26T04:15:27;17.13;;;3.77;;
3625;SDS011;1827;50.534;8.316;2023-02-26T04:17:59;12.33;;;3.27;;
3625;SDS011;1827;50.534;8.316;2023-02-26T04:20:26;17.63;;;3.90;;
3625;SDS011;1827;50.534;8.316;2023-02-26T04:22:52;13.90;;;3.63;;
3625;SDS011;1827;50.534;8.316;2023-02-26T04:25:30;15.00;;;3.63;;
3625;SDS011;1827;50.534;8.316;2023-02-26T04:28:09;19.00;;;4.40;;
3625;SDS011;1827;50.534;8.316;2023-02-26T04:30:35;14.93;;;3.70;;
3625;SDS011;1827;50.534;8.316;2023-02-26T04:33:02;14.83;;;3.80;;
3625;SDS011;1827;50.534;8.316;2023-02-26T04:35:28;14.30;;;4.10;;
3625;SDS011;1827;50.534;8.316;2023-02-26T04:37:56;15.37;;;3.43;;
3625;SDS011;1827;50.534;8.316;2023-02-26T04:40:25;14.10;;;3.13;;
3625;SDS011;1827;50.534;8.316;2023-02-26T04:42:51;15.37;;;3.37;;
3625;SDS011;1827;50.534;8.316;2023-02-26T04:45:21;14.33;;;3.07;;
3625;SDS011;1827;50.534;8.316;2023-02-26T04:47:47;18.23;;;3.57;;
3625;SDS011;1827;50.534;8.316;2023-02-26T04:50:13;15.50;;;3.20;;
3625;SDS011;1827;50.534;8.316;2023-02-26T04:52:42;13.70;;;3.40;;
3625;SDS011;1827;50.534;8.316;2023-02-26T04:55:08;14.83;;;3.50;;
3625;SDS011;1827;50.534;8.316;2023-02-26T04:57:36;14.70;;;3.43;;
3625;SDS011;1827;50.534;8.316;2023-02-26T05:00:03;14.60;;;3.57;;
3625;SDS011;1827;50.534;8.316;2023-02-26T05:02:35;15.57;;;3.60;;
3625;SDS011;1827;50.534;8.316;2023-02-26T05:05:01;14.47;;;3.53;;
3625;SDS011;1827;50.534;8.316;2023-02-26T05:07:29;14.80;;;3.40;;
3625;SDS011;1827;50.534;8.316;2023-02-26T05:09:55;12.90;;;3.40;;
3625;SDS011;1827;50.534;8.316;2023-02-26T05:12:21;21.67;;;4.63;;
3625;SDS011;1827;50.534;8.316;2023-02-26T05:14:47;14.30;;;3.53;;
3625;SDS011;1827;50.534;8.316;2023-02-26T05:17:12;15.33;;;3.27;;
3625;SDS011;1827;50.534;8.316;2023-02-26T05:19:38;17.97;;;3.80;;
3625;SDS011;1827;50.534;8.316;2023-02-26T05:22:04;16.80;;;4.00;;
3625;SDS011;1827;50.534;8.316;2023-02-26T05:24:30;13.10;;;3.53;;
3625;SDS011;1827;50.534;8.316;2023-02-26T05:26:56;14.37;;;3.60;;
3625;SDS011;1827;50.534;8.316;2023-02-26T05:29:21;14.70;;;3.67;;
3625;SDS011;1827;50.534;8.316;2023-02-26T05:31:48;18.03;;;3.80;;
3625;SDS011;1827;50.534;8.316;2023-02-26T05:34:14;14.30;;;4.13;;
3625;SDS011;1827;50.534;8.316;2023-02-26T05:36:40;16.80;;;3.83;;
3625;SDS011;1827;50.534;8.316;2023-02-26T05:39:06;14.33;;;3.37;;
3625;SDS011;1827;50.534;8.316;2023-02-26T05:41:33;12.47;;;3.33;;
3625;SDS011;1827;50.534;8.316;2023-02-26T05:43:58;15.93;;;3.50;;
3625;SDS011;1827;50.534;8.316;2023-02-26T05:46:27;12.50;;;3.60;;
3625;SDS011;1827;50.534;8.316;2023-02-26T05:48:53;14.80;;;3.20;;
3625;SDS011;1827;50.534;8.316;2023-02-26T05:51:18;14.83;;;3.40;;
3625;SDS011;1827;50.534;8.316;2023-02-26T05:53:47;11.20;;;3.00;;
3625;SDS011;1827;50.534;8.316;2023-02-26T05:56:15;12.70;;;3.57;;
3625;SDS011;1827;50.534;8.316;2023-02-26T05:58:41;15.07;;;3.10;;
3625;SDS011;1827;50.534;8.316;2023-02-26T06:01:10;13.33;;;3.20;;
3625;SDS011;1827;50.534;8.316;2023-02-26T06:03:36;12.70;;;3.47;;
3625;SDS011;1827;50.534;8.316;2023-02-26T06:06:08;14.43;;;3.70;;
3625;SDS011;1827;50.534;8.316;2023-02-26T06:08:34;16.93;;;4.53;;
3625;SDS011;1827;50.534;8.316;2023-02-26T06:11:00;14.30;;;3.43;;
3625;SDS011;1827;50.534;8.316;2023-02-26T06:13:26;15.47;;;3.60;;
3625;SDS011;1827;50.534;8.316;2023-02-26T06:15:51;19.00;;;3.80;;
3625;SDS011;1827;50.534;8.316;2023-02-26T06:18:17;14.33;;;3.43;;
3625;SDS011;1827;50.534;8.316;2023-02-26T06:20:43;18.90;;;4.20;;
3625;SDS011;1827;50.534;8.316;2023-02-26T06:23:09;16.83;;;3.73;;
3625;SDS011;1827;50.534;8.316;2023-02-26T06:25:34;16.20;;;4.20;;
3625;SDS011;1827;50.534;8.316;2023-02-26T06:28:03;24.97;;;6.40;;
3625;SDS011;1827;50.534;8.316;2023-02-26T06:30:29;17.43;;;3.63;;
3625;SDS011;1827;50.534;8.316;2023-02-26T06:32:54;12.80;;;3.57;;
3625;SDS011;1827;50.534;8.316;2023-02-26T06:35:23;18.20;;;3.50;;
3625;SDS011;1827;50.534;8.316;2023-02-26T06:37:54;14.70;;;3.60;;
3625;SDS011;1827;50.534;8.316;2023-02-26T06:40:23;18.37;;;4.60;;
3625;SDS011;1827;50.534;8.316;2023-02-26T06:42:49;15.53;;;3.87;;
3625;SDS011;1827;50.534;8.316;2023-02-26T06:45:14;13.93;;;3.43;;
3625;SDS011;1827;50.534;8.316;2023-02-26T06:47:40;18.40;;;4.20;;
3625;SDS011;1827;50.534;8.316;2023-02-26T06:50:06;15.97;;;3.50;;
3625;SDS011;1827;50.534;8.316;2023-02-26T06:52:35;13.40;;;3.87;;
3625;SDS011;1827;50.534;8.316;2023-02-26T06:55:04;15.10;;;3.77;;
3625;SDS011;1827;50.534;8.316;2023-02-26T06:57:30;14.93;;;4.13;;
3625;SDS011;1827;50.534;8.316;2023-02-26T06:59:56;14.00;;;3.63;;
3625;SDS011;1827;50.534;8.316;2023-02-26T07:02:22;17.70;;;4.60;;
3625;SDS011;1827;50.534;8.316;2023-02-26T07:04:48;14.50;;;4.13;;
3625;SDS011;1827;50.534;8.316;2023-02-26T07:07:17;15.90;;;4.17;;
3625;SDS011;1827;50.534;8.316;2023-02-26T07:09:43;17.07;;;3.73;;
3625;SDS011;1827;50.534;8.316;2023-02-26T07:12:09;16.10;;;3.70;;
3625;SDS011;1827;50.534;8.316;2023-02-26T07:14:35;14.23;;;4.10;;
3625;SDS011;1827;50.534;8.316;2023-02-26T07:17:02;16.50;;;4.00;;
3625;SDS011;1827;50.534;8.316;2023-02-26T07:19:28;14.67;;;3.70;;
3625;SDS011;1827;50.534;8.316;2023-02-26T07:21:54;13.93;;;3.60;;
3625;SDS011;1827;50.534;8.316;2023-02-26T07:24:20;16.37;;;4.07;;
3625;SDS011;1827;50.534;8.316;2023-02-26T07:26:47;13.77;;;4.47;;
3625;SDS011;1827;50.534;8.316;2023-02-26T07:29:12;17.20;;;4.13;;
3625;SDS011;1827;50.534;8.316;2023-02-26T07:31:38;13.93;;;3.90;;
3625;SDS011;1827;50.534;8.316;2023-02-26T07:34:04;35.43;;;11.93;;
3625;SDS011;1827;50.534;8.316;2023-02-26T07:36:30;14.77;;;4.73;;
3625;SDS011;1827;50.534;8.316;2023-02-26T07:38:56;18.63;;;4.80;;
3625;SDS011;1827;50.534;8.316;2023-02-26T07:41:21;14.30;;;4.17;;
3625;SDS011;1827;50.534;8.316;2023-02-26T07:43:47;14.67;;;5.60;;
3625;SDS011;1827;50.534;8.316;2023-02-26T07:46:13;15.10;;;3.87;;
3625;SDS011;1827;50.534;8.316;2023-02-26T07:48:39;17.07;;;3.80;;
3625;SDS011;1827;50.534;8.316;2023-02-26T07:51:05;15.57;;;3.67;;
3625;SDS011;1827;50.534;8.316;2023-02-26T07:53:32;16.80;;;3.80;;
3625;SDS011;1827;50.534;8.316;2023-02-26T07:55:58;17.00;;;3.33;;
3625;SDS011;1827;50.534;8.316;2023-02-26T07:58:24;13.47;;;3.63;;
3625;SDS011;1827;50.534;8.316;2023-02-26T08:00:50;14.20;;;3.60;;
3625;SDS011;1827;50.534;8.316;2023-02-26T08:03:17;13.10;;;3.47;;
3625;SDS011;1827;50.534;8.316;2023-02-26T08:05:43;24.03;;;3.87;;
3625;SDS011;1827;50.534;8.316;2023-02-26T08:08:09;12.30;;;2.90;;
3625;SDS011;1827;50.534;8.316;2023-02-26T08:10:35;15.20;;;3.80;;
3625;SDS011;1827;50.534;8.316;2023-02-26T08:13:01;13.27;;;3.63;;
3625;SDS011;1827;50.534;8.316;2023-02-26T08:15:26;12.20;;;3.37;;
3625;SDS011;1827;50.534;8.316;2023-02-26T08:17:52;14.77;;;3.80;;
3625;SDS011;1827;50.534;8.316;2023-02-26T08:20:18;12.50;;;2.90;;
3625;SDS011;1827;50.534;8.316;2023-02-26T08:22:44;12.60;;;3.13;;
3625;SDS011;1827;50.534;8.316;2023-02-26T08:25:09;11.80;;;2.90;;
3625;SDS011;1827;50.534;8.316;2023-02-26T08:27:36;11.90;;;2.87;;
3625;SDS011;1827;50.534;8.316;2023-02-26T08:30:03;12.30;;;3.00;;
3625;SDS011;1827;50.534;8.316;2023-02-26T08:32:32;11.80;;;3.10;;
3625;SDS011;1827;50.534;8.316;2023-02-26T08:34:58;19.57;;;3.27;;
3625;SDS011;1827;50.534;8.316;2023-02-26T08:37:23;15.40;;;3.00;;
3625;SDS011;1827;50.534;8.316;2023-02-26T08:39:52;13.67;;;2.43;;
3625;SDS011;1827;50.534;8.316;2023-02-26T08:42:18;12.47;;;3.30;;
3625;SDS011;1827;50.534;8.316;2023-02-26T08:44:45;12.83;;;3.20;;
3625;SDS011;1827;50.534;8.316;2023-02-26T08:47:11;14.07;;;3.50;;
3625;SDS011;1827;50.534;8.316;2023-02-26T08:49:37;13.80;;;3.00;;
3625;SDS011;1827;50.534;8.316;2023-02-26T08:52:03;15.70;;;4.60;;
3625;SDS011;1827;50.534;8.316;2023-02-26T08:54:28;14.63;;;3.30;;
3625;SDS011;1827;50.534;8.316;2023-02-26T08:56:54;19.27;;;5.20;;
3625;SDS011;1827;50.534;8.316;2023-02-26T08:59:22;16.83;;;5.80;;
3625;SDS011;1827;50.534;8.316;2023-02-26T09:01:49;14.70;;;4.20;;
3625;SDS011;1827;50.534;8.316;2023-02-26T09:04:18;16.83;;;4.20;;
3625;SDS011;1827;50.534;8.316;2023-02-26T09:06:43;15.57;;;3.97;;
3625;SDS011;1827;50.534;8.316;2023-02-26T09:09:09;15.03;;;4.67;;
3625;SDS011;1827;50.534;8.316;2023-02-26T09:11:35;14.20;;;4.20;;
3625;SDS011;1827;50.534;8.316;2023-02-26T09:14:02;12.30;;;3.20;;
3625;SDS011;1827;50.534;8.316;2023-02-26T09:16:28;13.30;;;3.50;;
3625;SDS011;1827;50.534;8.316;2023-02-26T09:18:55;13.03;;;3.37;;
3625;SDS011;1827;50.534;8.316;2023-02-26T09:21:21;18.13;;;3.80;;
3625;SDS011;1827;50.534;8.316;2023-02-26T09:23:47;12.60;;;3.57;;
3625;SDS011;1827;50.534;8.316;2023-02-26T09:26:12;11.87;;;3.00;;
3625;SDS011;1827;50.534;8.316;2023-02-26T09:28:39;12.50;;;3.40;;
3625;SDS011;1827;50.534;8.316;2023-02-26T09:31:04;13.70;;;3.40;;
3625;SDS011;1827;50.534;8.316;2023-02-26T09:33:33;12.83;;;3.60;;
3625;SDS011;1827;50.534;8.316;2023-02-26T09:36:00;14.70;;;3.33;;
3625;SDS011;1827;50.534;8.316;2023-02-26T09:38:26;14.63;;;3.00;;
3625;SDS011;1827;50.534;8.316;2023-02-26T09:40:59;13.83;;;3.07;;
3625;SDS011;1827;50.534;8.316;2023-02-26T09:46:07;13.50;;;2.90;;
3625;SDS011;1827;50.534;8.316;2023-02-26T09:48:49;11.90;;;2.53;;
3625;SDS011;1827;50.534;8.316;2023-02-26T09:51:18;13.97;;;2.63;;
3625;SDS011;1827;50.534;8.316;2023-02-26T09:53:46;12.47;;;2.50;;
3625;SDS011;1827;50.534;8.316;2023-02-26T09:56:23;15.63;;;3.50;;
3625;SDS011;1827;50.534;8.316;2023-02-26T09:58:50;11.60;;;2.37;;
3625;SDS011;1827;50.534;8.316;2023-02-26T10:11:52;13.07;;;2.20;;
3625;SDS011;1827;50.534;8.316;2023-02-26T10:20:52;12.67;;;2.57;;
3625;SDS011;1827;50.534;8.316;2023-02-26T10:23:38;13.90;;;2.37;;
3625;SDS011;1827;50.534;8.316;2023-02-26T10:42:49;14.10;;;2.90;;
3625;SDS011;1827;50.534;8.316;2023-02-26T10:45:39;15.00;;;3.50;;
3625;SDS011;1827;50.534;8.316;2023-02-26T10:48:35;13.63;;;3.50;;
3625;SDS011;1827;50.534;8.316;2023-02-26T10:51:23;14.53;;;3.37;;
3625;SDS011;1827;50.534;8.316;2023-02-26T10:53:57;22.27;;;6.67;;
3625;SDS011;1827;50.534;8.316;2023-02-26T10:56:28;15.53;;;4.43;;
3625;SDS011;1827;50.534;8.316;2023-02-26T10:58:55;26.60;;;7.43;;
3625;SDS011;1827;50.534;8.316;2023-02-26T11:01:22;21.20;;;5.30;;
3625;SDS011;1827;50.534;8.316;2023-02-26T11:04:00;14.27;;;4.70;;
3625;SDS011;1827;50.534;8.316;2023-02-26T11:06:53;41.57;;;15.90;;
3625;SDS011;1827;50.534;8.316;2023-02-26T11:09:30;32.37;;;11.40;;
3625;SDS011;1827;50.534;8.316;2023-02-26T11:12:06;22.87;;;7.63;;
3625;SDS011;1827;50.534;8.316;2023-02-26T11:14:37;12.73;;;3.13;;
3625;SDS011;1827;50.534;8.316;2023-02-26T11:17:09;12.00;;;3.10;;
3625;SDS011;1827;50.534;8.316;2023-02-26T11:19:37;21.93;;;7.30;;
3625;SDS011;1827;50.534;8.316;2023-02-26T11:22:13;18.20;;;4.23;;
3625;SDS011;1827;50.534;8.316;2023-02-26T11:24:42;14.23;;;4.23;;
3625;SDS011;1827;50.534;8.316;2023-02-26T11:27:12;13.23;;;3.03;;
3625;SDS011;1827;50.534;8.316;2023-02-26T11:29:45;13.10;;;3.57;;
3625;SDS011;1827;50.534;8.316;2023-02-26T11:32:16;13.30;;;3.90;;
3625;SDS011;1827;50.534;8.316;2023-02-26T11:34:50;14.07;;;3.37;;
3625;SDS011;1827;50.534;8.316;2023-02-26T11:37:19;15.27;;;3.93;;
3625;SDS011;1827;50.534;8.316;2023-02-26T11:39:58;13.30;;;3.20;;
3625;SDS011;1827;50.534;8.316;2023-02-26T11:42:39;14.03;;;3.47;;
3625;SDS011;1827;50.534;8.316;2023-02-26T11:45:16;14.23;;;3.30;;
3625;SDS011;1827;50.534;8.316;2023-02-26T11:47:52;11.83;;;2.50;;
3625;SDS011;1827;50.534;8.316;2023-02-26T11:50:26;13.03;;;3.20;;
3625;SDS011;1827;50.534;8.316;2023-02-26T11:52:55;14.40;;;3.43;;
3625;SDS011;1827;50.534;8.316;2023-02-26T11:55:32;17.13;;;3.13;;
3625;SDS011;1827;50.534;8.316;2023-02-26T11:58:09;13.00;;;2.97;;
3625;SDS011;1827;50.534;8.316;2023-02-26T12:00:44;12.03;;;2.90;;
3625;SDS011;1827;50.534;8.316;2023-02-26T12:03:15;16.13;;;2.40;;
3625;SDS011;1827;50.534;8.316;2023-02-26T12:05:49;12.37;;;2.83;;
3625;SDS011;1827;50.534;8.316;2023-02-26T12:38:36;14.10;;;3.57;;
3625;SDS011;1827;50.534;8.316;2023-02-26T12:44:13;14.07;;;2.97;;
3625;SDS011;1827;50.534;8.316;2023-02-26T12:49:17;13.10;;;2.50;;
3625;SDS011;1827;50.534;8.316;2023-02-26T12:51:52;12.57;;;3.20;;
3625;SDS011;1827;50.534;8.316;2023-02-26T12:59:47;11.83;;;2.87;;
3625;SDS011;1827;50.534;8.316;2023-02-26T13:05:41;15.83;;;3.47;;
3625;SDS011;1827;50.534;8.316;2023-02-26T13:17:08;16.30;;;4.30;;
3625;SDS011;1827;50.534;8.316;2023-02-26T13:20:21;26.03;;;4.27;;
3625;SDS011;1827;50.534;8.316;2023-02-26T13:23:16;17.00;;;4.97;;
3625;SDS011;1827;50.534;8.316;2023-02-26T13:25:50;18.90;;;6.17;;
3625;SDS011;1827;50.534;8.316;2023-02-26T13:30:59;14.57;;;2.77;;
3625;SDS011;1827;50.534;8.316;2023-02-26T13:33:31;13.37;;;3.13;;
3625;SDS011;1827;50.534;8.316;2023-02-26T13:36:07;12.13;;;3.20;;
3625;SDS011;1827;50.534;8.316;2023-02-26T13:41:32;12.40;;;2.80;;
3625;SDS011;1827;50.534;8.316;2023-02-26T13:44:13;11.50;;;2.47;;
3625;SDS011;1827;50.534;8.316;2023-02-26T13:50:02;11.60;;;2.23;;
3625;SDS011;1827;50.534;8.316;2023-02-26T13:52:48;14.70;;;3.30;;
3625;SDS011;1827;50.534;8.316;2023-02-26T14:00:58;12.77;;;2.47;;
3625;SDS011;1827;50.534;8.316;2023-02-26T14:04:48;12.97;;;3.17;;
3625;SDS011;1827;50.534;8.316;2023-02-26T14:06:53;14.47;;;2.73;;
3625;SDS011;1827;50.534;8.316;2023-02-26T14:09:58;18.23;;;4.67;;
3625;SDS011;1827;50.534;8.316;2023-02-26T14:12:33;18.43;;;3.30;;
3625;SDS011;1827;50.534;8.316;2023-02-26T14:20:25;12.87;;;2.73;;
3625;SDS011;1827;50.534;8.316;2023-02-26T14:30:50;13.07;;;2.67;;
3625;SDS011;1827;50.534;8.316;2023-02-26T14:33:26;13.27;;;2.43;;
3625;SDS011;1827;50.534;8.316;2023-02-26T14:35:54;13.10;;;2.70;;
3625;SDS011;1827;50.534;8.316;2023-02-26T14:38:27;15.23;;;3.53;;
3625;SDS011;1827;50.534;8.316;2023-02-26T14:41:05;15.70;;;3.13;;
3625;SDS011;1827;50.534;8.316;2023-02-26T14:43:57;12.70;;;2.73;;
3625;SDS011;1827;50.534;8.316;2023-02-26T14:46:30;14.57;;;2.70;;
3625;SDS011;1827;50.534;8.316;2023-02-26T14:48:57;10.87;;;2.10;;
3625;SDS011;1827;50.534;8.316;2023-02-26T14:51:38;12.03;;;2.27;;
3625;SDS011;1827;50.534;8.316;2023-02-26T15:10:41;13.57;;;3.10;;
3625;SDS011;1827;50.534;8.316;2023-02-26T15:16:21;13.03;;;2.33;;
3625;SDS011;1827;50.534;8.316;2023-02-26T15:21:31;12.07;;;2.80;;
3625;SDS011;1827;50.534;8.316;2023-02-26T15:24:04;12.03;;;2.30;;
3625;SDS011;1827;50.534;8.316;2023-02-26T15:26:33;13.00;;;2.93;;
3625;SDS011;1827;50.534;8.316;2023-02-26T15:29:03;13.20;;;2.57;;
3625;SDS011;1827;50.534;8.316;2023-02-26T15:31:42;15.07;;;2.80;;
3625;SDS011;1827;50.534;8.316;2023-02-26T15:34:25;13.03;;;2.73;;
3625;SDS011;1827;50.534;8.316;2023-02-26T15:36:52;11.10;;;2.20;;
3625;SDS011;1827;50.534;8.316;2023-02-26T15:39:21;12.23;;;2.53;;
3625;SDS011;1827;50.534;8.316;2023-02-26T15:41:49;11.27;;;2.17;;
3625;SDS011;1827;50.534;8.316;2023-02-26T15:44:20;10.67;;;2.03;;
3625;SDS011;1827;50.534;8.316;2023-02-26T15:46:57;18.00;;;3.03;;
3625;SDS011;1827;50.534;8.316;2023-02-26T15:49:28;11.47;;;2.40;;
3625;SDS011;1827;50.534;8.316;2023-02-26T15:51:59;13.50;;;2.53;;
3625;SDS011;1827;50.534;8.316;2023-02-26T15:54:40;12.10;;;2.40;;
3625;SDS011;1827;50.534;8.316;2023-02-26T15:57:10;14.03;;;2.67;;
3625;SDS011;1827;50.534;8.316;2023-02-26T15:59:42;13.10;;;3.17;;
3625;SDS011;1827;50.534;8.316;2023-02-26T16:02:18;16.37;;;3.20;;
3625;SDS011;1827;50.534;8.316;2023-02-26T16:04:48;12.40;;;2.67;;
3625;SDS011;1827;50.534;8.316;2023-02-26T16:07:18;14.00;;;2.70;;
3625;SDS011;1827;50.534;8.316;2023-02-26T16:09:45;11.60;;;2.43;;
3625;SDS011;1827;50.534;8.316;2023-02-26T16:14:46;22.70;;;6.77;;
3625;SDS011;1827;50.534;8.316;2023-02-26T16:17:25;14.27;;;3.57;;
3625;SDS011;1827;50.534;8.316;2023-02-26T16:19:59;13.50;;;4.00;;
3625;SDS011;1827;50.534;8.316;2023-02-26T16:25:14;11.30;;;2.57;;
3625;SDS011;1827;50.534;8.316;2023-02-26T16:27:51;14.17;;;3.17;;
3625;SDS011;1827;50.534;8.316;2023-02-26T16:30:31;12.50;;;2.80;;
3625;SDS011;1827;50.534;8.316;2023-02-26T16:33:02;13.70;;;3.10;;
3625;SDS011;1827;50.534;8.316;2023-02-26T16:35:37;14.37;;;3.43;;
3625;SDS011;1827;50.534;8.316;2023-02-26T16:38:17;12.80;;;3.00;;
3625;SDS011;1827;50.534;8.316;2023-02-26T16:40:57;11.63;;;2.80;;
3625;SDS011;1827;50.534;8.316;2023-02-26T16:47:01;12.83;;;2.87;;
3625;SDS011;1827;50.534;8.316;2023-02-26T16:51:42;14.40;;;3.87;;
3625;SDS011;1827;50.534;8.316;2023-02-26T16:54:14;13.63;;;3.50;;
3625;SDS011;1827;50.534;8.316;2023-02-26T16:56:49;14.73;;;3.00;;
3625;SDS011;1827;50.534;8.316;2023-02-26T16:59:29;15.00;;;4.07;;
3625;SDS011;1827;50.534;8.316;2023-02-26T17:02:00;11.50;;;2.70;;
3625;SDS011;1827;50.534;8.316;2023-02-26T17:04:44;12.83;;;2.40;;
3625;SDS011;1827;50.534;8.316;2023-02-26T17:07:19;15.30;;;5.37;;
3625;SDS011;1827;50.534;8.316;2023-02-26T17:09:54;24.87;;;7.33;;
3625;SDS011;1827;50.534;8.316;2023-02-26T17:12:29;17.67;;;5.10;;
3625;SDS011;1827;50.534;8.316;2023-02-26T17:15:18;22.17;;;8.40;;
3625;SDS011;1827;50.534;8.316;2023-02-26T17:18:06;18.50;;;7.00;;
3625;SDS011;1827;50.534;8.316;2023-02-26T17:20:38;16.50;;;4.50;;
3625;SDS011;1827;50.534;8.316;2023-02-26T17:23:05;21.60;;;5.93;;
3625;SDS011;1827;50.534;8.316;2023-02-26T17:25:41;16.97;;;4.17;;
3625;SDS011;1827;50.534;8.316;2023-02-26T17:28:19;25.77;;;9.20;;
3625;SDS011;1827;50.534;8.316;2023-02-26T17:30:48;24.10;;;7.50;;
3625;SDS011;1827;50.534;8.316;2023-02-26T17:33:15;18.37;;;5.97;;
3625;SDS011;1827;50.534;8.316;2023-02-26T17:35:41;19.50;;;5.93;;
3625;SDS011;1827;50.534;8.316;2023-02-26T17:38:09;25.93;;;8.53;;
3625;SDS011;1827;50.534;8.316;2023-02-26T17:40:40;26.30;;;8.93;;
3625;SDS011;1827;50.534;8.316;2023-02-26T17:43:11;33.70;;;13.93;;
3625;SDS011;1827;50.534;8.316;2023-02-26T17:45:38;17.97;;;6.87;;
3625;SDS011;1827;50.534;8.316;2023-02-26T17:48:07;18.07;;;6.90;;
3625;SDS011;1827;50.534;8.316;2023-02-26T17:50:46;16.83;;;4.63;;
3625;SDS011;1827;50.534;8.316;2023-02-26T17:53:17;19.43;;;3.70;;
3625;SDS011;1827;50.534;8.316;2023-02-26T17:55:45;21.40;;;4.73;;
3625;SDS011;1827;50.534;8.316;2023-02-26T17:58:17;16.17;;;5.13;;
3625;SDS011;1827;50.534;8.316;2023-02-26T18:00:47;18.47;;;6.10;;
3625;SDS011;1827;50.534;8.316;2023-02-26T18:03:14;23.30;;;6.00;;
3625;SDS011;1827;50.534;8.316;2023-02-26T18:05:44;17.00;;;4.63;;
3625;SDS011;1827;50.534;8.316;2023-02-26T18:10:48;14.60;;;4.30;;
3625;SDS011;1827;50.534;8.316;2023-02-26T18:13:15;36.47;;;11.70;;
3625;SDS011;1827;50.534;8.316;2023-02-26T18:15:44;38.83;;;13.13;;
3625;SDS011;1827;50.534;8.316;2023-02-26T18:18:13;28.03;;;9.40;;
3625;SDS011;1827;50.534;8.316;2023-02-26T18:20:44;17.03;;;5.00;;
3625;SDS011;1827;50.534;8.316;2023-02-26T18:23:12;21.80;;;7.60;;
3625;SDS011;1827;50.534;8.316;2023-02-26T18:25:46;18.23;;;5.30;;
3625;SDS011;1827;50.534;8.316;2023-02-26T18:28:18;18.50;;;4.33;;
3625;SDS011;1827;50.534;8.316;2023-02-26T18:30:49;18.60;;;5.23;;
3625;SDS011;1827;50.534;8.316;2023-02-26T18:33:18;21.43;;;8.03;;
3625;SDS011;1827;50.534;8.316;2023-02-26T18:35:53;21.77;;;7.67;;
3625;SDS011;1827;50.534;8.316;2023-02-26T18:38:22;17.80;;;4.90;;
3625;SDS011;1827;50.534;8.316;2023-02-26T18:40:54;17.97;;;4.00;;
3625;SDS011;1827;50.534;8.316;2023-02-26T18:43:24;16.00;;;4.20;;
3625;SDS011;1827;50.534;8.316;2023-02-26T18:45:51;19.80;;;5.93;;
3625;SDS011;1827;50.534;8.316;2023-02-26T18:48:18;15.80;;;3.47;;
3625;SDS011;1827;50.534;8.316;2023-02-26T18:50:45;18.83;;;4.53;;
3625;SDS011;1827;50.534;8.316;2023-02-26T18:53:14;16.57;;;4.93;;
3625;SDS011;1827;50.534;8.316;2023-02-26T18:55:42;16.77;;;5.00;;
3625;SDS011;1827;50.534;8.316;2023-02-26T18:58:14;18.67;;;5.57;;
3625;SDS011;1827;50.534;8.316;2023-02-26T19:00:43;18.90;;;6.50;;